Data for 05/31/2006

Time Sea-Level Adjusted Pressure Absolute Pressure Temperature Relative Humidity Dew Point   
(mb) (inHg) (mb) (inHg) (C) (F) (%) (C) (F)
00:05 1025 30.27 855 25.25 8.9 47.9 59 1.2 34.2
00:10 1025 30.27 855 25.25 8.6 47.5 59 1.1 34
00:15 1025 30.27 855 25.25 8.5 47.3 60 1.2 34.2
00:20 1025 30.27 855 25.25 8.3 47 60 1.1 34
00:25 1026 30.3 855 25.25 8.3 46.9 60 1.1 33.9
00:30 1026 30.3 855 25.25 8.1 46.6 61 1.1 34
00:35 1026 30.3 855 25.25 8 46.3 61 1 33.8
00:40 1026 30.3 855 25.25 7.9 46.3 61 1 33.8
00:45 1026 30.3 855 25.25 8 46.4 60 0.7 33.3
00:50 1026 30.3 855 25.25 8.2 46.7 59 0.7 33.3
00:55 1026 30.3 855 25.25 8.1 46.6 60 0.9 33.7
01:00 1026 30.3 855 25.25 7.9 46.1 61 0.8 33.5
01:05 1026 30.3 855 25.25 7.8 46 61 0.8 33.4
01:10 1026 30.3 855 25.25 7.7 45.9 61 0.6 33.1
01:15 1026 30.3 855 25.25 7.7 45.9 61 0.6 33.1
01:20 1026 30.3 855 25.25 7.5 45.6 63 0.9 33.6
01:25 1026 30.3 855 25.25 7.4 45.4 62 0.7 33.3
01:30 1026 30.3 855 25.25 7.4 45.4 62 0.7 33.3
01:35 1026 30.3 855 25.25 7.3 45.1 64 0.9 33.6
01:40 1026 30.3 855 25.25 7.1 44.8 63 0.5 32.9
01:45 1026 30.3 855 25.25 7.1 44.7 63 0.6 33.1
01:50 1026 30.3 855 25.25 7 44.5 65 0.8 33.4
01:55 1026 30.3 855 25.25 6.9 44.3 64 0.5 32.9
02:00 1026 30.3 855 25.25 6.9 44.5 65 0.7 33.3
02:05 1026 30.3 855 25.25 6.9 44.4 63 0.4 32.8
02:10 1026 30.3 855 25.25 7.2 45 63 0.6 33
02:15 1026 30.3 855 25.25 7.2 44.9 61 0.1 32.3
02:20 1026 30.3 855 25.25 7.4 45.3 63 0.8 33.4
02:25 1026 30.3 855 25.25 7.2 44.9 62 0.5 32.8
02:30 1026 30.3 855 25.25 7 44.6 64 0.7 33.2
02:35 1026 30.3 855 25.25 7.1 44.7 62 0.4 32.7
02:40 1026 30.3 855 25.25 7.3 45.2 61 0.4 32.6
02:45 1026 30.3 855 25.25 7.4 45.4 60 0.3 32.5
02:50 1026 30.3 855 25.25 7.5 45.5 60 0.3 32.5
02:55 1026 30.3 855 25.25 7.3 45.2 62 0.6 33.1
03:00 1026 30.3 855 25.25 7 44.6 64 0.7 33.2
03:05 1026 30.3 855 25.25 6.6 43.9 66 0.7 33.3
03:10 1026 30.3 855 25.25 6.1 42.9 67 0.4 32.6
03:15 1026 30.3 855 25.25 6 42.7 67 0.3 32.5
03:20 1026 30.3 855 25.25 6 42.7 67 0.4 32.7
03:25 1026 30.3 855 25.25 5.9 42.7 67 0.4 32.7
03:30 1026 30.3 855 25.25 5.9 42.5 67 0.2 32.3
03:35 1026 30.3 855 25.25 6.1 42.9 65 0.1 32.1
03:40 1026 30.3 855 25.25 6 42.9 66 0.1 32.2
03:45 1026 30.3 855 25.25 6 42.8 66 0.2 32.4
03:50 1026 30.3 855 25.25 5.9 42.7 66 0.2 32.3
03:55 1026 30.3 855 25.25 6.1 42.9 66 0.3 32.5
04:00 1026 30.3 855 25.25 6.1 43 66 0.2 32.4
04:05 1026 30.3 855 25.25 6 42.9 67 0.3 32.5
04:10 1026 30.3 855 25.25 5.8 42.4 68 0.4 32.7
04:15 1026 30.3 855 25.25 5.4 41.7 69 0.2 32.4
04:20 1026 30.3 855 25.25 5.4 41.7 69 0.2 32.4
04:25 1026 30.3 855 25.25 5.4 41.7 69 0.2 32.3
04:30 1026 30.3 855 25.25 5.4 41.7 69 0.2 32.3
04:35 1026 30.3 855 25.25 5.4 41.7 69 0.1 32.2
04:40 1026 30.3 855 25.25 5.4 41.7 69 0.1 32.2
04:45 1026 30.3 855 25.25 5.4 41.7 69 0.1 32.2
04:50 1026 30.3 855 25.25 5.3 41.6 69 0.2 32.4
04:55 1026 30.3 855 25.25 5.3 41.5 69 0.1 32.2
05:00 1026 30.3 855 25.25 5.3 41.6 69 0.1 32.1
05:05 1026 30.3 855 25.25 5.3 41.5 69 0.1 32.3
05:10 1026 30.3 855 25.25 5.2 41.4 69 0.1 32.2
05:15 1026 30.3 855 25.25 5.2 41.3 70 0.2 32.3
05:20 1026 30.3 855 25.25 5 41 71 0.2 32.3
05:25 1026 30.3 855 25.25 4.8 40.7 70 -0.1 31.8
05:30 1026 30.3 855 25.25 4.7 40.4 71 -0.2 31.7
05:35 1026 30.3 855 25.25 5 41 67 -0.5 31.1
05:40 1026 30.3 855 25.25 5.6 42.1 63 -0.9 30.5
05:45 1026 30.3 855 25.25 6 42.9 62 -0.6 30.8
05:50 1026 30.3 855 25.25 6.3 43.3 63 -0.2 31.6
05:55 1026 30.3 855 25.25 6.1 43.1 64 -0.1 31.8
06:00 1026 30.3 855 25.25 6.1 43 64 -0.1 31.8
06:05 1026 30.3 856 25.28 6.2 43.1 64 -0 31.9
06:10 1026 30.3 856 25.28 6.1 43 65 0 32
06:15 1026 30.3 856 25.28 5.9 42.6 67 0.2 32.3
06:20 1026 30.3 856 25.28 5.4 41.8 68 -0.1 31.9
06:25 1027 30.33 856 25.28 5.3 41.5 68 -0.2 31.6
06:30 1027 30.33 856 25.28 5.2 41.3 69 -0 32
06:35 1026 30.3 856 25.28 5.1 41.1 69 -0.1 31.8
06:40 1026 30.3 856 25.28 5.4 41.7 68 -0.1 31.9
06:45 1026 30.3 856 25.28 5.8 42.4 67 0.1 32.1
06:50 1026 30.3 856 25.28 6.1 43 65 0 32
06:55 1026 30.3 856 25.28 6.4 43.6 64 0.1 32.1
07:00 1026 30.3 856 25.28 6.7 44.1 62 0 32
07:05 1026 30.3 856 25.28 6.9 44.4 62 0.2 32.3
07:10 1026 30.3 856 25.28 7 44.6 63 0.5 32.8
07:15 1026 30.3 856 25.28 7.1 44.7 62 0.3 32.6
07:20 1026 30.3 856 25.28 7.1 44.8 62 0.4 32.7
07:25 1026 30.3 856 25.28 7.5 45.4 61 0.3 32.6
07:30 1026 30.3 856 25.28 7.9 46.2 60 0.6 33.1
07:35 1026 30.3 856 25.28 8.2 46.7 59 0.6 33.1
07:40 1026 30.3 856 25.28 8.5 47.3 57 0.4 32.8
07:45 1026 30.3 856 25.28 8.6 47.5 58 0.8 33.4
07:50 1027 30.33 856 25.28 8.9 48 58 1.1 34
07:55 1027 30.33 856 25.28 9.2 48.5 57 1.1 33.9
08:00 1027 30.33 856 25.28 9.2 48.6 57 1.2 34.2
08:05 1027 30.33 856 25.28 9.9 49.7 54 1.1 33.9
08:10 1027 30.33 856 25.28 10 50.1 52 0.6 33.1
08:15 1027 30.33 856 25.28 10.3 50.5 52 0.8 33.5
08:20 1027 30.33 856 25.28 10.2 50.4 53 1.1 34
08:25 1027 30.33 856 25.28 10.6 51.1 50 0.5 33
08:30 1027 30.33 856 25.28 10.9 51.7 50 0.9 33.6
08:35 1027 30.33 856 25.28 10.9 51.6 49 0.7 33.2
08:40 1027 30.33 856 25.28 11.5 52.8 48 1 33.8
08:45 1027 30.33 856 25.28 12.5 54.5 45 0.8 33.5
08:50 1027 30.33 856 25.28 12.6 54.6 44 0.6 33.1
08:55 1027 30.33 856 25.28 12.4 54.4 43 0.3 32.5
09:00 1027 30.33 856 25.28 12.5 54.5 44 0.5 32.9
09:05 1027 30.33 856 25.28 12.5 54.6 43 0.4 32.8
09:10 1027 30.33 856 25.28 13.7 56.7 40 0.4 32.8
09:15 1027 30.33 856 25.28 14 57.1 40 0.8 33.4
09:20 1027 30.33 856 25.28 14.2 57.5 40 0.8 33.5
09:25 1027 30.33 856 25.28 15 58.9 39 1.1 33.9
09:30 1027 30.33 856 25.28 14.4 58 40 1 33.8
09:35 1026 30.3 856 25.28 14.8 58.6 39 1.1 34
09:40 1026 30.3 856 25.28 14.8 58.6 38 0.8 33.5
09:45 1027 30.33 856 25.28 15 59.1 39 1.1 34
09:50 1026 30.3 856 25.28 15.9 60.5 39 2 35.6
09:55 1026 30.3 856 25.28 16.1 60.9 39 2.1 35.7
10:00 1026 30.3 856 25.28 16.6 61.8 37 2.1 35.7
10:05 1026 30.3 856 25.28 16.3 61.3 38 2.2 36
10:10 1026 30.3 856 25.28 16.2 61.2 38 2.1 35.7
10:15 1026 30.3 856 25.28 17 62.5 34 1.1 33.9
10:20 1026 30.3 856 25.28 16.7 62 36 1.5 34.7
10:25 1026 30.3 856 25.28 16.9 62.4 33 0.6 33.1
10:30 1026 30.3 855 25.25 17.6 63.6 34 1.5 34.7
10:35 1026 30.3 855 25.25 16.8 62.2 38 2.3 36.1
10:40 1026 30.3 855 25.25 16.3 61.4 36 1.2 34.1
10:45 1026 30.3 856 25.28 16.2 61.2 38 1.8 35.3
10:50 1026 30.3 855 25.25 16.9 62.5 35 1.6 34.8
10:55 1026 30.3 855 25.25 16.1 61.1 38 1.9 35.3
11:00 1026 30.3 855 25.25 16 60.8 39 2.1 35.8
11:05 1026 30.3 855 25.25 16.9 62.5 33 0.8 33.5
11:10 1026 30.3 855 25.25 17.4 63.2 32 0.5 32.9
11:15 1026 30.3 855 25.25 17.7 63.9 34 1.8 35.2
11:20 1026 30.3 855 25.25 18.3 65 33 1.9 35.5
11:25 1026 30.3 855 25.25 18.1 64.6 31 0.8 33.5
11:30 1026 30.3 855 25.25 17.6 63.6 30 -0.3 31.5
11:35 1026 30.3 855 25.25 18.4 65.1 29 0.2 32.3
11:40 1026 30.3 855 25.25 18.3 65 30 0.5 33
11:45 1026 30.3 855 25.25 18.9 66.1 25 -1.3 29.7
11:50 1026 30.3 855 25.25 18.9 66 23 -2.8 26.9
11:55 1026 30.3 855 25.25 19 66.1 25 -1.1 29.9
12:00 1026 30.3 855 25.25 18.8 65.9 26 -1.1 30
12:05 1026 30.3 855 25.25 18.2 64.8 23 -2.9 26.7
12:10 1026 30.3 855 25.25 18.8 65.8 24 -2.3 27.8
12:15 1026 30.3 855 25.25 18.9 66.1 20 -4.4 24.2
12:20 1026 30.3 855 25.25 19.3 66.8 20 -4.2 24.4
12:25 1026 30.3 855 25.25 18.8 65.9 23 -2.5 27.6
12:30 1026 30.3 855 25.25 19.3 66.8 24 -1.6 29.2
12:35 1026 30.3 855 25.25 18.7 65.6 23 -2.7 27.2
12:40 1026 30.3 855 25.25 18.4 65.1 23 -2.9 26.8
12:45 1026 30.3 855 25.25 19 66.2 22 -3.3 26
12:50 1026 30.3 855 25.25 19 66.2 22 -2.8 26.9
12:55 1026 30.3 855 25.25 18.9 66.1 23 -2.3 27.8
13:00 1026 30.3 855 25.25 19.5 67.2 22 -2.7 27.2
13:05 1026 30.3 855 25.25 19.4 66.8 22 -2.8 26.9
13:10 1026 30.3 855 25.25 19.7 67.4 21 -3.2 26.3
13:15 1026 30.3 855 25.25 19.9 67.9 21 -2.9 26.7
13:20 1026 30.3 855 25.25 20.2 68.3 21 -3 26.6
13:25 1026 30.3 855 25.25 20.5 68.9 21 -2.5 27.5
13:30 1025 30.27 855 25.25 20.5 68.9 22 -1.5 29.3
13:35 1025 30.27 855 25.25 20.1 68.2 23 -1.4 29.4
13:40 1025 30.27 854 25.22 20.8 69.5 21 -2.3 27.8
13:45 1025 30.27 854 25.22 20.4 68.7 21 -2.4 27.6
13:50 1025 30.27 854 25.22 20.5 68.8 21 -2.5 27.6
13:55 1025 30.27 854 25.22 20.5 68.9 21 -2.6 27.3
14:00 1025 30.27 854 25.22 20.8 69.5 20 -3.1 26.4
14:05 1025 30.27 854 25.22 21.1 70 20 -2.8 27
14:10 1025 30.27 854 25.22 20.9 69.7 21 -2.2 28
14:15 1025 30.27 854 25.22 21.2 70.2 20 -2.6 27.3
14:20 1025 30.27 854 25.22 21.3 70.3 19 -3.1 26.4
14:25 1025 30.27 854 25.22 21 69.9 20 -2.4 27.7
14:30 1025 30.27 854 25.22 21.2 70.2 21 -2 28.4
14:35 1025 30.27 854 25.22 21.3 70.4 20 -2.5 27.5
14:40 1025 30.27 854 25.22 21.1 70 20 -2.5 27.5
14:45 1025 30.27 854 25.22 21 69.8 20 -2.5 27.4
14:50 1025 30.27 854 25.22 21.3 70.3 19 -3.1 26.5
14:55 1025 30.27 854 25.22 21.5 70.7 20 -2 28.3
15:00 1025 30.27 854 25.22 21.4 70.5 20 -2.3 27.8
15:05 1025 30.27 854 25.22 21.9 71.3 19 -2.5 27.5
15:10 1025 30.27 854 25.22 21.9 71.3 21 -1.5 29.3
15:15 1025 30.27 854 25.22 22.1 71.7 19 -2.1 28.2
15:20 1024 30.24 854 25.22 21.6 70.8 20 -2.2 28
15:25 1024 30.24 854 25.22 20.8 69.5 21 -2.1 28.3
15:30 1024 30.24 854 25.22 21.8 71.2 20 -1.8 28.8
15:35 1024 30.24 854 25.22 22.5 72.6 20 -1.1 30
15:40 1024 30.24 853 25.19 22.1 71.8 20 -1.6 29.1
15:45 1024 30.24 853 25.19 22.3 72.2 20 -1.7 29
15:50 1024 30.24 853 25.19 21.1 70 21 -1.7 28.9
15:55 1024 30.24 853 25.19 20.4 68.8 20 -2.9 26.8
16:00 1024 30.24 853 25.19 19.6 67.3 22 -2.6 27.3
16:05 1024 30.24 853 25.19 19.9 67.9 22 -2.5 27.5
16:10 1024 30.24 853 25.19 21.6 70.8 20 -2.4 27.7
16:15 1024 30.24 853 25.19 22.5 72.4 19 -2.2 28
16:20 1024 30.24 853 25.19 22.7 72.9 19 -1.7 28.9
16:25 1024 30.24 853 25.19 21.4 70.6 20 -2.1 28.2
16:30 1024 30.24 853 25.19 20.3 68.5 21 -2.4 27.6
16:35 1024 30.24 853 25.19 19.8 67.7 21 -3.1 26.4
16:40 1024 30.24 853 25.19 20.5 68.8 19 -3.6 25.6
16:45 1024 30.24 853 25.19 20.7 69.2 19 -3.3 26
16:50 1024 30.24 853 25.19 21.3 70.3 18 -3.6 25.6
16:55 1024 30.24 853 25.19 22 71.6 19 -2.4 27.8
17:00 1024 30.24 853 25.19 21.9 71.4 20 -2.1 28.2
17:05 1024 30.24 853 25.19 20.7 69.3 19 -3.7 25.4
17:10 1024 30.24 853 25.19 20.7 69.3 19 -3.7 25.4
17:15 1024 30.24 853 25.19 20.8 69.5 19 -3.2 26.2
17:20 1024 30.24 853 25.19 21.5 70.6 18 -3.6 25.5
17:25 1024 30.24 853 25.19 21.1 70 19 -3.1 26.5
17:30 1024 30.24 853 25.19 21.4 70.6 18 -3.7 25.3
17:35 1024 30.24 853 25.19 21.8 71.3 18 -3.2 26.3
17:40 1023 30.21 853 25.19 21.5 70.8 19 -3.1 26.4
17:45 1023 30.21 853 25.19 21 69.7 19 -3.6 25.5
17:50 1023 30.21 853 25.19 20.8 69.4 19 -3.8 25.1
17:55 1023 30.21 853 25.19 21.4 70.5 18 -3.8 25.2
18:00 1023 30.21 853 25.19 21.9 71.4 18 -3.2 26.2
18:05 1023 30.21 853 25.19 21.9 71.4 18 -3.3 26
18:10 1023 30.21 853 25.19 21.2 70.2 19 -2.8 26.9
18:15 1023 30.21 853 25.19 21.6 70.8 19 -2.9 26.8
18:20 1023 30.21 853 25.19 21.7 71 18 -3.6 25.5
18:25 1023 30.21 853 25.19 22 71.7 17 -3.6 25.5
18:30 1023 30.21 853 25.19 21.4 70.6 18 -3.5 25.8
18:35 1023 30.21 853 25.19 21.1 69.9 19 -3.5 25.7
18:40 1023 30.21 853 25.19 20.9 69.7 19 -3.7 25.4
18:45 1023 30.21 852 25.16 21.2 70.2 19 -3.3 26
18:50 1023 30.21 852 25.16 20.9 69.7 20 -2.8 26.9
18:55 1023 30.21 852 25.16 20.4 68.8 20 -3 26.7
19:00 1023 30.21 852 25.16 20.6 69.1 20 -2.9 26.8
19:05 1023 30.21 852 25.16 20.5 68.9 20 -2.9 26.8
19:10 1023 30.21 852 25.16 20.2 68.4 20 -3 26.5
19:15 1023 30.21 852 25.16 20.1 68.2 21 -3 26.6
19:20 1023 30.21 852 25.16 20 67.9 21 -3.1 26.5
19:25 1023 30.21 852 25.16 19.8 67.6 21 -3 26.5
19:30 1023 30.21 852 25.16 19.8 67.6 21 -3.1 26.4
19:35 1023 30.21 852 25.16 19.7 67.5 21 -3.1 26.3
19:40 1023 30.21 852 25.16 19.8 67.6 21 -3.2 26.3
19:45 1023 30.21 852 25.16 19.7 67.4 21 -3.3 26
19:50 1023 30.21 852 25.16 19.5 67.2 21 -3.2 26.3
19:55 1023 30.21 853 25.19 19.5 67.1 22 -2.9 26.8
20:00 1023 30.21 853 25.19 19.5 67.2 22 -2.8 27
20:05 1023 30.21 853 25.19 19.5 67.1 21 -3 26.6
20:10 1023 30.21 852 25.16 19.4 66.9 21 -3.1 26.4
20:15 1023 30.21 853 25.19 19.4 66.8 22 -2.7 27.2
20:20 1023 30.21 853 25.19 19.3 66.7 23 -2.5 27.4
20:25 1023 30.21 853 25.19 19.2 66.5 23 -2.5 27.5
20:30 1023 30.21 853 25.19 19.2 66.5 23 -2.2 28
20:35 1023 30.21 853 25.19 19 66.2 24 -1.9 28.6
20:40 1023 30.21 853 25.19 18.9 66 24 -2 28.5
20:45 1023 30.21 853 25.19 18.8 65.9 24 -2 28.5
20:50 1023 30.21 853 25.19 18.7 65.7 24 -2.1 28.3
20:55 1024 30.24 853 25.19 18.6 65.6 24 -2.3 27.8
21:00 1024 30.24 853 25.19 18.6 65.5 25 -1.9 28.6
21:05 1024 30.24 853 25.19 18.6 65.4 25 -1.5 29.4
21:10 1024 30.24 853 25.19 18.1 64.7 33 1.9 35.4
21:15 1024 30.24 853 25.19 17 62.6 39 2.9 37.3
21:20 1024 30.24 853 25.19 15.9 60.7 42 3 37.5
21:25 1024 30.24 853 25.19 15.4 59.7 43 3.1 37.5
21:30 1024 30.24 853 25.19 14.5 58.1 51 4.5 40.1
21:35 1024 30.24 853 25.19 13.8 56.9 48 3 37.3
21:40 1024 30.24 853 25.19 13.9 57.1 47 2.8 37
21:45 1024 30.24 853 25.19 13.8 56.8 44 1.9 35.4
21:50 1024 30.24 853 25.19 13.4 56.1 46 2.1 35.8
21:55 1024 30.24 853 25.19 13.5 56.2 43 1.2 34.1
22:00 1024 30.24 853 25.19 14.1 57.3 42 1.5 34.7
22:05 1024 30.24 853 25.19 13.7 56.7 44 1.7 35
22:10 1024 30.24 853 25.19 13.5 56.4 44 1.6 34.8
22:15 1024 30.24 853 25.19 13.4 56.1 46 2.1 35.8
22:20 1024 30.24 853 25.19 13 55.3 48 2.2 35.9
22:25 1024 30.24 853 25.19 12.6 54.7 49 2.2 35.9
22:30 1024 30.24 853 25.19 12.7 54.8 46 1.5 34.6
22:35 1024 30.24 854 25.22 13.4 56.1 44 1.6 34.8
22:40 1024 30.24 854 25.22 13.3 56 45 1.8 35.2
22:45 1024 30.24 854 25.22 13 55.3 45 1.4 34.5
22:50 1024 30.24 854 25.22 13 55.5 45 1.5 34.6
22:55 1024 30.24 854 25.22 12.9 55.1 46 1.5 34.8
23:00 1024 30.24 854 25.22 13.2 55.7 43 0.8 33.4
23:05 1024 30.24 854 25.22 13.8 56.8 41 0.9 33.7
23:10 1024 30.24 854 25.22 13.4 56.2 43 1.2 34.2
23:15 1024 30.24 853 25.19 12.8 55.1 45 1.4 34.5
23:20 1024 30.24 853 25.19 12.4 54.3 47 1.4 34.6
23:25 1024 30.24 853 25.19 12.3 54.1 46 1.1 33.9
23:30 1024 30.24 853 25.19 12.3 54.2 48 1.7 35
23:35 1024 30.24 853 25.19 11.6 53 49 1.5 34.6
23:40 1024 30.24 853 25.19 11.6 52.9 48 1 33.8
23:45 1024 30.24 853 25.19 11.6 52.9 49 1.3 34.3
23:50 1024 30.24 853 25.19 11.6 52.8 49 1.4 34.5
23:55 1024 30.24 853 25.19 11.4 52.4 49 1.1 34
24:00 1024 30.24 853 25.19 11.2 52.1 50 1.2 34.1